Terminal Aerodrome Forecast
Issued by NWS

Home | Current Version | Previous Version | Text Only | Print | Product List | Glossary On
Versions: 1 2 3 4 5 6 7 8 9 10 11 12 13
000
FTUS45 KFGZ 251100 AAA
TAFPGA
TAF AMD
KPGA 251158Z 2512/2612 VRB06KT P6SM SKC
     FM252100 22010G15KT P6SM FEW100 SCT250
     FM260100 VRB06KT P6SM FEW100 SCT250=

USA.gov is the U.S. government's official web portal to all federal, state and local government web resources and services.